sensor_id;sensor_type;location;lat;lon;timestamp;temperature;humidity
16404;DHT22;8311;50.158;8.642;2023-11-19T00:01:35;19.50;52.90
16404;DHT22;8311;50.158;8.642;2023-11-19T00:04:29;19.50;52.80
16404;DHT22;8311;50.158;8.642;2023-11-19T00:07:23;19.40;52.90
16404;DHT22;8311;50.158;8.642;2023-11-19T00:10:26;19.40;52.90
16404;DHT22;8311;50.158;8.642;2023-11-19T00:13:19;19.40;53.00
16404;DHT22;8311;50.158;8.642;2023-11-19T00:16:12;19.40;52.90
16404;DHT22;8311;50.158;8.642;2023-11-19T00:19:07;19.40;52.90
16404;DHT22;8311;50.158;8.642;2023-11-19T00:22:01;19.40;52.90
16404;DHT22;8311;50.158;8.642;2023-11-19T00:24:55;19.40;52.90
16404;DHT22;8311;50.158;8.642;2023-11-19T00:27:49;19.40;52.90
16404;DHT22;8311;50.158;8.642;2023-11-19T00:30:43;19.40;52.90
16404;DHT22;8311;50.158;8.642;2023-11-19T00:33:35;19.40;52.90
16404;DHT22;8311;50.158;8.642;2023-11-19T00:36:42;19.30;52.90
16404;DHT22;8311;50.158;8.642;2023-11-19T00:39:36;19.30;52.90
16404;DHT22;8311;50.158;8.642;2023-11-19T00:42:30;19.30;52.90
16404;DHT22;8311;50.158;8.642;2023-11-19T00:45:23;19.30;52.90
16404;DHT22;8311;50.158;8.642;2023-11-19T00:48:17;19.30;52.90
16404;DHT22;8311;50.158;8.642;2023-11-19T00:51:12;19.30;52.70
16404;DHT22;8311;50.158;8.642;2023-11-19T00:54:06;19.30;53.00
16404;DHT22;8311;50.158;8.642;2023-11-19T00:57:00;19.30;53.00
16404;DHT22;8311;50.158;8.642;2023-11-19T00:59:53;19.30;52.90
16404;DHT22;8311;50.158;8.642;2023-11-19T01:02:47;19.30;52.90
16404;DHT22;8311;50.158;8.642;2023-11-19T01:05:43;19.30;52.90
16404;DHT22;8311;50.158;8.642;2023-11-19T01:08:36;19.30;53.00
16404;DHT22;8311;50.158;8.642;2023-11-19T01:11:31;19.30;53.00
16404;DHT22;8311;50.158;8.642;2023-11-19T01:14:24;19.20;53.00
16404;DHT22;8311;50.158;8.642;2023-11-19T01:17:19;19.20;53.10
16404;DHT22;8311;50.158;8.642;2023-11-19T01:20:13;19.20;53.10
16404;DHT22;8311;50.158;8.642;2023-11-19T01:23:07;19.20;53.10
16404;DHT22;8311;50.158;8.642;2023-11-19T01:26:01;19.20;53.10
16404;DHT22;8311;50.158;8.642;2023-11-19T01:28:55;19.20;53.20
16404;DHT22;8311;50.158;8.642;2023-11-19T01:31:48;19.20;53.20
16404;DHT22;8311;50.158;8.642;2023-11-19T01:34:43;19.20;53.20
16404;DHT22;8311;50.158;8.642;2023-11-19T01:37:37;19.20;53.20
16404;DHT22;8311;50.158;8.642;2023-11-19T01:40:31;19.20;53.20
16404;DHT22;8311;50.158;8.642;2023-11-19T01:43:32;19.20;53.30
16404;DHT22;8311;50.158;8.642;2023-11-19T01:46:27;19.20;53.30
16404;DHT22;8311;50.158;8.642;2023-11-19T01:49:21;19.20;53.20
16404;DHT22;8311;50.158;8.642;2023-11-19T01:52:14;19.20;53.30
16404;DHT22;8311;50.158;8.642;2023-11-19T01:55:07;19.20;53.30
16404;DHT22;8311;50.158;8.642;2023-11-19T01:58:02;19.20;53.10
16404;DHT22;8311;50.158;8.642;2023-11-19T02:00:56;19.20;53.40
16404;DHT22;8311;50.158;8.642;2023-11-19T02:03:51;19.20;53.40
16404;DHT22;8311;50.158;8.642;2023-11-19T02:06:45;19.20;53.40
16404;DHT22;8311;50.158;8.642;2023-11-19T02:09:42;19.20;53.50
16404;DHT22;8311;50.158;8.642;2023-11-19T02:12:36;19.20;53.50
16404;DHT22;8311;50.158;8.642;2023-11-19T02:15:29;19.20;53.50
16404;DHT22;8311;50.158;8.642;2023-11-19T02:18:23;19.10;53.60
16404;DHT22;8311;50.158;8.642;2023-11-19T02:21:21;19.20;53.70
16404;DHT22;8311;50.158;8.642;2023-11-19T02:24:16;19.20;53.70
16404;DHT22;8311;50.158;8.642;2023-11-19T02:27:15;19.20;53.70
16404;DHT22;8311;50.158;8.642;2023-11-19T02:30:12;19.20;53.70
16404;DHT22;8311;50.158;8.642;2023-11-19T02:33:07;19.20;53.80
16404;DHT22;8311;50.158;8.642;2023-11-19T02:36:00;19.10;53.70
16404;DHT22;8311;50.158;8.642;2023-11-19T02:38:54;19.10;53.80
16404;DHT22;8311;50.158;8.642;2023-11-19T02:41:48;19.10;53.80
16404;DHT22;8311;50.158;8.642;2023-11-19T02:44:44;19.10;53.80
16404;DHT22;8311;50.158;8.642;2023-11-19T02:47:38;19.10;53.80
16404;DHT22;8311;50.158;8.642;2023-11-19T02:50:31;19.10;53.80
16404;DHT22;8311;50.158;8.642;2023-11-19T02:53:24;19.10;53.90
16404;DHT22;8311;50.158;8.642;2023-11-19T02:56:19;19.10;53.90
16404;DHT22;8311;50.158;8.642;2023-11-19T02:59:17;19.10;53.90
16404;DHT22;8311;50.158;8.642;2023-11-19T03:02:19;19.10;53.90
16404;DHT22;8311;50.158;8.642;2023-11-19T03:05:14;19.10;53.90
16404;DHT22;8311;50.158;8.642;2023-11-19T03:08:07;19.10;53.90
16404;DHT22;8311;50.158;8.642;2023-11-19T03:11:01;19.10;53.90
16404;DHT22;8311;50.158;8.642;2023-11-19T03:13:55;19.10;53.90
16404;DHT22;8311;50.158;8.642;2023-11-19T03:16:47;19.10;53.90
16404;DHT22;8311;50.158;8.642;2023-11-19T03:19:41;19.10;53.90
16404;DHT22;8311;50.158;8.642;2023-11-19T03:22:36;19.10;54.00
16404;DHT22;8311;50.158;8.642;2023-11-19T03:25:32;19.10;54.00
16404;DHT22;8311;50.158;8.642;2023-11-19T03:28:26;19.10;54.10
16404;DHT22;8311;50.158;8.642;2023-11-19T03:31:19;19.10;54.10
16404;DHT22;8311;50.158;8.642;2023-11-19T03:34:12;19.10;54.10
16404;DHT22;8311;50.158;8.642;2023-11-19T03:37:05;19.10;54.10
16404;DHT22;8311;50.158;8.642;2023-11-19T03:39:59;19.00;54.10
16404;DHT22;8311;50.158;8.642;2023-11-19T03:42:55;19.10;54.20
16404;DHT22;8311;50.158;8.642;2023-11-19T03:45:49;19.00;54.00
16404;DHT22;8311;50.158;8.642;2023-11-19T03:48:42;19.00;54.20
16404;DHT22;8311;50.158;8.642;2023-11-19T03:51:35;19.00;54.20
16404;DHT22;8311;50.158;8.642;2023-11-19T03:54:28;19.00;54.20
16404;DHT22;8311;50.158;8.642;2023-11-19T03:57:23;19.00;54.30
16404;DHT22;8311;50.158;8.642;2023-11-19T04:00:17;19.00;54.20
16404;DHT22;8311;50.158;8.642;2023-11-19T04:03:13;19.00;54.30
16404;DHT22;8311;50.158;8.642;2023-11-19T04:06:06;19.00;54.40
16404;DHT22;8311;50.158;8.642;2023-11-19T04:09:00;19.00;54.40
16404;DHT22;8311;50.158;8.642;2023-11-19T04:11:53;19.00;54.40
16404;DHT22;8311;50.158;8.642;2023-11-19T04:14:48;19.00;54.40
16404;DHT22;8311;50.158;8.642;2023-11-19T04:17:53;19.00;54.50
16404;DHT22;8311;50.158;8.642;2023-11-19T04:20:46;19.00;54.50
16404;DHT22;8311;50.158;8.642;2023-11-19T04:23:41;19.00;54.60
16404;DHT22;8311;50.158;8.642;2023-11-19T04:26:34;19.00;54.60
16404;DHT22;8311;50.158;8.642;2023-11-19T04:29:28;19.00;54.70
16404;DHT22;8311;50.158;8.642;2023-11-19T04:32:24;19.00;54.70
16404;DHT22;8311;50.158;8.642;2023-11-19T04:35:19;19.00;54.80
16404;DHT22;8311;50.158;8.642;2023-11-19T04:38:13;19.00;54.80
16404;DHT22;8311;50.158;8.642;2023-11-19T04:41:07;19.00;54.90
16404;DHT22;8311;50.158;8.642;2023-11-19T04:44:00;19.00;54.90
16404;DHT22;8311;50.158;8.642;2023-11-19T04:46:53;19.00;54.90
16404;DHT22;8311;50.158;8.642;2023-11-19T04:49:48;19.00;54.90
16404;DHT22;8311;50.158;8.642;2023-11-19T04:52:41;19.00;54.90
16404;DHT22;8311;50.158;8.642;2023-11-19T04:55:37;19.00;55.00
16404;DHT22;8311;50.158;8.642;2023-11-19T04:58:30;19.00;55.00
16404;DHT22;8311;50.158;8.642;2023-11-19T05:01:24;19.00;55.00
16404;DHT22;8311;50.158;8.642;2023-11-19T05:04:17;19.00;55.10
16404;DHT22;8311;50.158;8.642;2023-11-19T05:07:12;19.00;55.10
16404;DHT22;8311;50.158;8.642;2023-11-19T05:10:07;19.00;55.10
16404;DHT22;8311;50.158;8.642;2023-11-19T05:13:01;19.00;55.20
16404;DHT22;8311;50.158;8.642;2023-11-19T05:15:54;18.90;55.20
16404;DHT22;8311;50.158;8.642;2023-11-19T05:18:47;18.90;55.30
16404;DHT22;8311;50.158;8.642;2023-11-19T05:21:41;18.90;55.30
16404;DHT22;8311;50.158;8.642;2023-11-19T05:24:36;18.90;55.30
16404;DHT22;8311;50.158;8.642;2023-11-19T05:27:32;19.00;55.30
16404;DHT22;8311;50.158;8.642;2023-11-19T05:30:25;18.90;55.30
16404;DHT22;8311;50.158;8.642;2023-11-19T05:33:18;18.90;55.30
16404;DHT22;8311;50.158;8.642;2023-11-19T05:36:11;18.90;55.30
16404;DHT22;8311;50.158;8.642;2023-11-19T05:39:05;18.90;55.40
16404;DHT22;8311;50.158;8.642;2023-11-19T05:41:59;18.90;55.40
16404;DHT22;8311;50.158;8.642;2023-11-19T05:44:52;18.90;55.40
16404;DHT22;8311;50.158;8.642;2023-11-19T05:47:45;18.90;55.40
16404;DHT22;8311;50.158;8.642;2023-11-19T05:50:39;18.90;55.40
16404;DHT22;8311;50.158;8.642;2023-11-19T05:53:32;18.90;55.40
16404;DHT22;8311;50.158;8.642;2023-11-19T05:56:26;18.90;55.40
16404;DHT22;8311;50.158;8.642;2023-11-19T05:59:25;18.90;55.50
16404;DHT22;8311;50.158;8.642;2023-11-19T06:02:19;18.90;55.40
16404;DHT22;8311;50.158;8.642;2023-11-19T06:05:12;18.90;55.50
16404;DHT22;8311;50.158;8.642;2023-11-19T06:08:06;18.90;55.60
16404;DHT22;8311;50.158;8.642;2023-11-19T06:10:59;18.90;55.60
16404;DHT22;8311;50.158;8.642;2023-11-19T06:13:53;18.90;55.60
16404;DHT22;8311;50.158;8.642;2023-11-19T06:16:47;18.90;55.60
16404;DHT22;8311;50.158;8.642;2023-11-19T06:19:41;18.90;56.30
16404;DHT22;8311;50.158;8.642;2023-11-19T06:22:34;18.90;55.70
16404;DHT22;8311;50.158;8.642;2023-11-19T06:25:28;18.90;55.70
16404;DHT22;8311;50.158;8.642;2023-11-19T06:28:21;18.80;55.70
16404;DHT22;8311;50.158;8.642;2023-11-19T06:31:15;18.80;55.70
16404;DHT22;8311;50.158;8.642;2023-11-19T06:34:10;18.90;55.80
16404;DHT22;8311;50.158;8.642;2023-11-19T06:37:04;18.90;55.80
16404;DHT22;8311;50.158;8.642;2023-11-19T06:39:58;18.80;55.80
16404;DHT22;8311;50.158;8.642;2023-11-19T06:42:51;18.90;55.90
16404;DHT22;8311;50.158;8.642;2023-11-19T06:45:44;18.90;55.90
16404;DHT22;8311;50.158;8.642;2023-11-19T06:48:37;18.80;55.90
16404;DHT22;8311;50.158;8.642;2023-11-19T06:51:32;18.80;55.90
16404;DHT22;8311;50.158;8.642;2023-11-19T06:54:25;18.80;56.00
16404;DHT22;8311;50.158;8.642;2023-11-19T06:57:18;18.80;56.00
16404;DHT22;8311;50.158;8.642;2023-11-19T07:00:13;18.80;56.00
16404;DHT22;8311;50.158;8.642;2023-11-19T07:03:07;18.80;56.10
16404;DHT22;8311;50.158;8.642;2023-11-19T07:06:01;18.80;56.10
16404;DHT22;8311;50.158;8.642;2023-11-19T07:08:58;18.80;56.10
16404;DHT22;8311;50.158;8.642;2023-11-19T07:11:51;18.80;56.10
16404;DHT22;8311;50.158;8.642;2023-11-19T07:14:45;18.80;56.10
16404;DHT22;8311;50.158;8.642;2023-11-19T07:17:38;18.90;56.20
16404;DHT22;8311;50.158;8.642;2023-11-19T07:20:33;18.80;56.20
16404;DHT22;8311;50.158;8.642;2023-11-19T07:23:26;18.80;56.20
16404;DHT22;8311;50.158;8.642;2023-11-19T07:26:20;18.80;56.20
16404;DHT22;8311;50.158;8.642;2023-11-19T07:29:14;18.80;56.30
16404;DHT22;8311;50.158;8.642;2023-11-19T07:32:20;18.80;56.40
16404;DHT22;8311;50.158;8.642;2023-11-19T07:35:13;18.80;56.40
16404;DHT22;8311;50.158;8.642;2023-11-19T07:38:07;18.80;56.50
16404;DHT22;8311;50.158;8.642;2023-11-19T07:41:00;18.80;56.50
16404;DHT22;8311;50.158;8.642;2023-11-19T07:43:55;18.80;56.50
16404;DHT22;8311;50.158;8.642;2023-11-19T07:46:48;18.80;56.50
16404;DHT22;8311;50.158;8.642;2023-11-19T07:49:42;18.80;56.50
16404;DHT22;8311;50.158;8.642;2023-11-19T07:52:37;18.80;56.60
16404;DHT22;8311;50.158;8.642;2023-11-19T07:55:31;18.80;56.60
16404;DHT22;8311;50.158;8.642;2023-11-19T07:58:24;18.80;56.60
16404;DHT22;8311;50.158;8.642;2023-11-19T08:01:18;18.80;56.60
16404;DHT22;8311;50.158;8.642;2023-11-19T08:04:12;18.80;56.70
16404;DHT22;8311;50.158;8.642;2023-11-19T08:07:06;18.80;56.70
16404;DHT22;8311;50.158;8.642;2023-11-19T08:09:59;18.80;56.80
16404;DHT22;8311;50.158;8.642;2023-11-19T08:12:53;18.80;56.80
16404;DHT22;8311;50.158;8.642;2023-11-19T08:15:46;18.80;56.80
16404;DHT22;8311;50.158;8.642;2023-11-19T08:18:41;18.80;56.80
16404;DHT22;8311;50.158;8.642;2023-11-19T08:21:35;18.80;56.70
16404;DHT22;8311;50.158;8.642;2023-11-19T08:24:28;18.80;57.60
16404;DHT22;8311;50.158;8.642;2023-11-19T08:27:22;18.80;58.20
16404;DHT22;8311;50.158;8.642;2023-11-19T08:30:19;19.00;58.70
16404;DHT22;8311;50.158;8.642;2023-11-19T08:33:12;19.00;59.30
16404;DHT22;8311;50.158;8.642;2023-11-19T08:36:09;19.10;59.00
16404;DHT22;8311;50.158;8.642;2023-11-19T08:39:08;19.20;58.80
16404;DHT22;8311;50.158;8.642;2023-11-19T08:42:01;19.30;58.80
16404;DHT22;8311;50.158;8.642;2023-11-19T08:44:54;19.40;59.10
16404;DHT22;8311;50.158;8.642;2023-11-19T08:47:47;19.60;59.00
16404;DHT22;8311;50.158;8.642;2023-11-19T08:50:40;19.80;59.10
16404;DHT22;8311;50.158;8.642;2023-11-19T08:53:34;20.00;58.90
16404;DHT22;8311;50.158;8.642;2023-11-19T08:56:28;20.20;59.00
16404;DHT22;8311;50.158;8.642;2023-11-19T08:59:24;20.30;59.10
16404;DHT22;8311;50.158;8.642;2023-11-19T09:02:17;20.40;59.00
16404;DHT22;8311;50.158;8.642;2023-11-19T09:05:11;20.50;59.00
16404;DHT22;8311;50.158;8.642;2023-11-19T09:08:06;20.50;59.20
16404;DHT22;8311;50.158;8.642;2023-11-19T09:11:01;20.50;59.20
16404;DHT22;8311;50.158;8.642;2023-11-19T09:13:59;20.60;58.90
16404;DHT22;8311;50.158;8.642;2023-11-19T09:16:53;20.60;58.80
16404;DHT22;8311;50.158;8.642;2023-11-19T09:19:47;20.70;58.50
16404;DHT22;8311;50.158;8.642;2023-11-19T09:22:40;20.80;58.10
16404;DHT22;8311;50.158;8.642;2023-11-19T09:25:34;20.90;58.10
16404;DHT22;8311;50.158;8.642;2023-11-19T09:28:31;21.00;57.70
16404;DHT22;8311;50.158;8.642;2023-11-19T09:31:24;21.10;57.70
16404;DHT22;8311;50.158;8.642;2023-11-19T09:34:17;21.20;57.60
16404;DHT22;8311;50.158;8.642;2023-11-19T09:37:10;21.40;57.20
16404;DHT22;8311;50.158;8.642;2023-11-19T09:40:07;21.50;57.10
16404;DHT22;8311;50.158;8.642;2023-11-19T09:43:01;21.70;57.00
16404;DHT22;8311;50.158;8.642;2023-11-19T09:45:56;21.80;57.10
16404;DHT22;8311;50.158;8.642;2023-11-19T09:48:53;22.00;57.00
16404;DHT22;8311;50.158;8.642;2023-11-19T09:51:47;22.20;56.90
16404;DHT22;8311;50.158;8.642;2023-11-19T09:54:40;22.40;56.40
16404;DHT22;8311;50.158;8.642;2023-11-19T09:57:34;22.70;56.20
16404;DHT22;8311;50.158;8.642;2023-11-19T10:00:30;22.90;55.80
16404;DHT22;8311;50.158;8.642;2023-11-19T10:03:25;23.00;55.70
16404;DHT22;8311;50.158;8.642;2023-11-19T10:06:19;23.00;55.80
16404;DHT22;8311;50.158;8.642;2023-11-19T10:09:12;23.10;56.00
16404;DHT22;8311;50.158;8.642;2023-11-19T10:12:08;23.10;56.10
16404;DHT22;8311;50.158;8.642;2023-11-19T10:15:01;23.10;56.20
16404;DHT22;8311;50.158;8.642;2023-11-19T10:17:55;23.10;56.10
16404;DHT22;8311;50.158;8.642;2023-11-19T10:20:51;23.10;56.70
16404;DHT22;8311;50.158;8.642;2023-11-19T10:23:50;23.10;57.50
16404;DHT22;8311;50.158;8.642;2023-11-19T10:26:43;23.10;58.00
16404;DHT22;8311;50.158;8.642;2023-11-19T10:29:37;23.20;58.60
16404;DHT22;8311;50.158;8.642;2023-11-19T10:32:31;23.20;59.10
16404;DHT22;8311;50.158;8.642;2023-11-19T10:35:24;23.20;59.60
16404;DHT22;8311;50.158;8.642;2023-11-19T10:38:20;23.30;60.10
16404;DHT22;8311;50.158;8.642;2023-11-19T10:41:26;23.30;60.20
16404;DHT22;8311;50.158;8.642;2023-11-19T10:44:32;23.30;61.10
16404;DHT22;8311;50.158;8.642;2023-11-19T10:47:29;23.30;58.60
16404;DHT22;8311;50.158;8.642;2023-11-19T10:50:25;23.20;58.00
16404;DHT22;8311;50.158;8.642;2023-11-19T10:53:21;23.20;58.90
16404;DHT22;8311;50.158;8.642;2023-11-19T10:56:20;23.10;58.90
16404;DHT22;8311;50.158;8.642;2023-11-19T10:59:20;23.00;59.00
16404;DHT22;8311;50.158;8.642;2023-11-19T11:02:20;23.00;59.00
16404;DHT22;8311;50.158;8.642;2023-11-19T11:05:14;23.00;59.40
16404;DHT22;8311;50.158;8.642;2023-11-19T11:08:10;23.00;58.70
16404;DHT22;8311;50.158;8.642;2023-11-19T11:11:05;23.00;59.20
16404;DHT22;8311;50.158;8.642;2023-11-19T11:14:02;23.00;59.40
16404;DHT22;8311;50.158;8.642;2023-11-19T11:16:56;23.10;59.10
16404;DHT22;8311;50.158;8.642;2023-11-19T11:19:51;23.10;58.80
16404;DHT22;8311;50.158;8.642;2023-11-19T11:22:52;23.10;58.60
16404;DHT22;8311;50.158;8.642;2023-11-19T11:25:52;23.10;58.60
16404;DHT22;8311;50.158;8.642;2023-11-19T11:28:58;23.10;58.60
16404;DHT22;8311;50.158;8.642;2023-11-19T11:32:00;23.10;58.60
16404;DHT22;8311;50.158;8.642;2023-11-19T11:38:22;23.10;58.30
16404;DHT22;8311;50.158;8.642;2023-11-19T11:41:20;23.10;58.30
16404;DHT22;8311;50.158;8.642;2023-11-19T11:44:58;23.10;58.10
16404;DHT22;8311;50.158;8.642;2023-11-19T11:48:16;23.10;58.10
16404;DHT22;8311;50.158;8.642;2023-11-19T11:51:11;23.00;57.90
16404;DHT22;8311;50.158;8.642;2023-11-19T11:54:04;23.00;57.90
16404;DHT22;8311;50.158;8.642;2023-11-19T11:57:06;23.00;57.50
16404;DHT22;8311;50.158;8.642;2023-11-19T12:00:04;23.00;57.10
16404;DHT22;8311;50.158;8.642;2023-11-19T12:03:07;23.00;57.10
16404;DHT22;8311;50.158;8.642;2023-11-19T12:06:00;22.90;56.70
16404;DHT22;8311;50.158;8.642;2023-11-19T12:08:59;22.90;57.00
16404;DHT22;8311;50.158;8.642;2023-11-19T12:12:07;22.90;56.40
16404;DHT22;8311;50.158;8.642;2023-11-19T12:15:08;22.90;56.00
16404;DHT22;8311;50.158;8.642;2023-11-19T12:18:08;22.80;56.10
16404;DHT22;8311;50.158;8.642;2023-11-19T12:21:01;22.80;56.20
16404;DHT22;8311;50.158;8.642;2023-11-19T12:23:55;22.90;56.10
16404;DHT22;8311;50.158;8.642;2023-11-19T12:26:54;22.90;56.00
16404;DHT22;8311;50.158;8.642;2023-11-19T12:29:50;22.90;56.60
16404;DHT22;8311;50.158;8.642;2023-11-19T12:32:45;22.80;56.00
16404;DHT22;8311;50.158;8.642;2023-11-19T12:35:39;22.80;55.70
16404;DHT22;8311;50.158;8.642;2023-11-19T12:38:33;22.80;55.20
16404;DHT22;8311;50.158;8.642;2023-11-19T12:41:26;22.70;54.10
16404;DHT22;8311;50.158;8.642;2023-11-19T12:44:21;22.70;53.00
16404;DHT22;8311;50.158;8.642;2023-11-19T12:47:14;22.60;52.40
16404;DHT22;8311;50.158;8.642;2023-11-19T12:50:12;22.50;52.30
16404;DHT22;8311;50.158;8.642;2023-11-19T12:53:05;22.50;53.30
16404;DHT22;8311;50.158;8.642;2023-11-19T12:56:07;22.50;53.30
16404;DHT22;8311;50.158;8.642;2023-11-19T12:59:10;22.40;54.10
16404;DHT22;8311;50.158;8.642;2023-11-19T13:02:04;22.40;53.70
16404;DHT22;8311;50.158;8.642;2023-11-19T13:04:58;22.40;53.90
16404;DHT22;8311;50.158;8.642;2023-11-19T13:07:58;22.40;54.00
16404;DHT22;8311;50.158;8.642;2023-11-19T13:10:52;22.30;54.20
16404;DHT22;8311;50.158;8.642;2023-11-19T13:13:55;22.30;54.40
16404;DHT22;8311;50.158;8.642;2023-11-19T13:16:49;22.20;54.40
16404;DHT22;8311;50.158;8.642;2023-11-19T13:19:42;22.20;54.40
16404;DHT22;8311;50.158;8.642;2023-11-19T13:22:35;22.20;54.50
16404;DHT22;8311;50.158;8.642;2023-11-19T13:25:30;22.10;54.50
16404;DHT22;8311;50.158;8.642;2023-11-19T13:28:25;22.10;54.60
16404;DHT22;8311;50.158;8.642;2023-11-19T13:31:18;22.10;54.70
16404;DHT22;8311;50.158;8.642;2023-11-19T13:34:11;22.00;54.80
16404;DHT22;8311;50.158;8.642;2023-11-19T13:37:04;22.00;54.90
16404;DHT22;8311;50.158;8.642;2023-11-19T13:39:57;21.90;54.90
16404;DHT22;8311;50.158;8.642;2023-11-19T13:42:51;21.90;55.00
16404;DHT22;8311;50.158;8.642;2023-11-19T13:45:45;21.90;55.10
16404;DHT22;8311;50.158;8.642;2023-11-19T13:48:38;21.80;55.20
16404;DHT22;8311;50.158;8.642;2023-11-19T13:51:31;21.80;55.30
16404;DHT22;8311;50.158;8.642;2023-11-19T13:54:24;21.80;55.30
16404;DHT22;8311;50.158;8.642;2023-11-19T13:57:20;21.70;55.40
16404;DHT22;8311;50.158;8.642;2023-11-19T14:00:15;21.70;55.50
16404;DHT22;8311;50.158;8.642;2023-11-19T14:03:11;21.70;55.60
16404;DHT22;8311;50.158;8.642;2023-11-19T14:06:04;21.60;55.60
16404;DHT22;8311;50.158;8.642;2023-11-19T14:09:01;21.60;55.70
16404;DHT22;8311;50.158;8.642;2023-11-19T14:11:55;21.50;55.70
16404;DHT22;8311;50.158;8.642;2023-11-19T14:14:48;21.50;55.80
16404;DHT22;8311;50.158;8.642;2023-11-19T14:17:43;21.50;55.90
16404;DHT22;8311;50.158;8.642;2023-11-19T14:20:36;21.40;56.10
16404;DHT22;8311;50.158;8.642;2023-11-19T14:23:31;21.40;56.00
16404;DHT22;8311;50.158;8.642;2023-11-19T14:26:24;21.40;56.10
16404;DHT22;8311;50.158;8.642;2023-11-19T14:29:18;21.40;56.00
16404;DHT22;8311;50.158;8.642;2023-11-19T14:32:12;21.30;56.00
16404;DHT22;8311;50.158;8.642;2023-11-19T14:35:07;21.30;56.00
16404;DHT22;8311;50.158;8.642;2023-11-19T14:38:00;21.30;56.10
16404;DHT22;8311;50.158;8.642;2023-11-19T14:40:56;21.20;56.10
16404;DHT22;8311;50.158;8.642;2023-11-19T14:43:51;21.20;56.10
16404;DHT22;8311;50.158;8.642;2023-11-19T14:46:44;21.20;56.10
16404;DHT22;8311;50.158;8.642;2023-11-19T14:49:37;21.20;56.10
16404;DHT22;8311;50.158;8.642;2023-11-19T14:52:32;21.10;56.10
16404;DHT22;8311;50.158;8.642;2023-11-19T14:55:25;21.10;56.10
16404;DHT22;8311;50.158;8.642;2023-11-19T14:58:19;21.10;56.20
16404;DHT22;8311;50.158;8.642;2023-11-19T15:01:13;21.10;56.10
16404;DHT22;8311;50.158;8.642;2023-11-19T15:04:06;21.10;56.10
16404;DHT22;8311;50.158;8.642;2023-11-19T15:07:00;21.00;56.10
16404;DHT22;8311;50.158;8.642;2023-11-19T15:09:55;21.00;56.10
16404;DHT22;8311;50.158;8.642;2023-11-19T15:12:48;21.10;56.20
16404;DHT22;8311;50.158;8.642;2023-11-19T15:15:41;21.00;56.20
16404;DHT22;8311;50.158;8.642;2023-11-19T15:18:36;21.20;57.00
16404;DHT22;8311;50.158;8.642;2023-11-19T15:21:28;21.10;62.40
16404;DHT22;8311;50.158;8.642;2023-11-19T15:24:21;21.00;56.20
16404;DHT22;8311;50.158;8.642;2023-11-19T15:27:16;20.90;56.20
16404;DHT22;8311;50.158;8.642;2023-11-19T15:30:11;21.00;56.20
16404;DHT22;8311;50.158;8.642;2023-11-19T15:33:04;20.90;56.30
16404;DHT22;8311;50.158;8.642;2023-11-19T15:35:57;20.90;56.20
16404;DHT22;8311;50.158;8.642;2023-11-19T15:38:52;20.90;56.30
16404;DHT22;8311;50.158;8.642;2023-11-19T15:41:46;20.90;56.30
16404;DHT22;8311;50.158;8.642;2023-11-19T15:44:41;20.80;56.30
16404;DHT22;8311;50.158;8.642;2023-11-19T15:47:34;20.90;56.40
16404;DHT22;8311;50.158;8.642;2023-11-19T15:50:28;20.80;56.40
16404;DHT22;8311;50.158;8.642;2023-11-19T15:53:23;20.80;56.40
16404;DHT22;8311;50.158;8.642;2023-11-19T15:56:16;20.80;57.00
16404;DHT22;8311;50.158;8.642;2023-11-19T15:59:09;20.80;56.40
16404;DHT22;8311;50.158;8.642;2023-11-19T16:02:04;20.80;56.40
16404;DHT22;8311;50.158;8.642;2023-11-19T16:04:57;20.70;56.30
16404;DHT22;8311;50.158;8.642;2023-11-19T16:07:51;20.70;57.00
16404;DHT22;8311;50.158;8.642;2023-11-19T16:10:44;20.70;56.30
16404;DHT22;8311;50.158;8.642;2023-11-19T16:13:38;20.70;56.30
16404;DHT22;8311;50.158;8.642;2023-11-19T16:16:31;20.70;56.40
16404;DHT22;8311;50.158;8.642;2023-11-19T16:19:26;20.70;56.30
16404;DHT22;8311;50.158;8.642;2023-11-19T16:22:20;20.70;56.40
16404;DHT22;8311;50.158;8.642;2023-11-19T16:25:15;20.70;56.40
16404;DHT22;8311;50.158;8.642;2023-11-19T16:28:09;20.60;56.30
16404;DHT22;8311;50.158;8.642;2023-11-19T16:31:02;20.60;56.30
16404;DHT22;8311;50.158;8.642;2023-11-19T16:33:55;20.60;56.40
16404;DHT22;8311;50.158;8.642;2023-11-19T16:36:50;20.60;56.40
16404;DHT22;8311;50.158;8.642;2023-11-19T16:39:43;20.60;56.30
16404;DHT22;8311;50.158;8.642;2023-11-19T16:42:36;20.60;56.30
16404;DHT22;8311;50.158;8.642;2023-11-19T16:45:29;20.60;56.20
16404;DHT22;8311;50.158;8.642;2023-11-19T16:48:23;20.60;56.20
16404;DHT22;8311;50.158;8.642;2023-11-19T16:51:16;20.60;56.20
16404;DHT22;8311;50.158;8.642;2023-11-19T16:54:10;20.60;56.20
16404;DHT22;8311;50.158;8.642;2023-11-19T16:57:04;20.60;56.40
16404;DHT22;8311;50.158;8.642;2023-11-19T16:59:57;20.60;56.30
16404;DHT22;8311;50.158;8.642;2023-11-19T17:02:50;20.60;56.30
16404;DHT22;8311;50.158;8.642;2023-11-19T17:05:43;20.60;56.30
16404;DHT22;8311;50.158;8.642;2023-11-19T17:08:37;20.50;56.30
16404;DHT22;8311;50.158;8.642;2023-11-19T17:11:32;20.50;56.30
16404;DHT22;8311;50.158;8.642;2023-11-19T17:14:27;20.50;56.30
16404;DHT22;8311;50.158;8.642;2023-11-19T17:17:23;20.50;56.30
16404;DHT22;8311;50.158;8.642;2023-11-19T17:20:18;20.50;56.20
16404;DHT22;8311;50.158;8.642;2023-11-19T17:23:11;20.50;56.30
16404;DHT22;8311;50.158;8.642;2023-11-19T17:26:05;20.50;56.20
16404;DHT22;8311;50.158;8.642;2023-11-19T17:29:00;20.50;56.20
16404;DHT22;8311;50.158;8.642;2023-11-19T17:31:53;20.50;56.20
16404;DHT22;8311;50.158;8.642;2023-11-19T17:34:47;20.50;56.10
16404;DHT22;8311;50.158;8.642;2023-11-19T17:37:39;20.50;56.00
16404;DHT22;8311;50.158;8.642;2023-11-19T17:40:33;20.50;56.10
16404;DHT22;8311;50.158;8.642;2023-11-19T17:43:26;20.50;56.00
16404;DHT22;8311;50.158;8.642;2023-11-19T17:46:21;20.40;56.60
16404;DHT22;8311;50.158;8.642;2023-11-19T17:49:15;20.40;55.90
16404;DHT22;8311;50.158;8.642;2023-11-19T17:52:07;20.40;55.90
16404;DHT22;8311;50.158;8.642;2023-11-19T17:55:02;20.40;54.80
16404;DHT22;8311;50.158;8.642;2023-11-19T17:57:57;20.40;54.40
16404;DHT22;8311;50.158;8.642;2023-11-19T18:00:51;20.50;54.30
16404;DHT22;8311;50.158;8.642;2023-11-19T18:03:45;20.50;54.30
16404;DHT22;8311;50.158;8.642;2023-11-19T18:06:39;20.50;54.30
16404;DHT22;8311;50.158;8.642;2023-11-19T18:09:35;20.50;54.30
16404;DHT22;8311;50.158;8.642;2023-11-19T18:12:28;20.50;54.80
16404;DHT22;8311;50.158;8.642;2023-11-19T18:15:22;20.50;55.30
16404;DHT22;8311;50.158;8.642;2023-11-19T18:18:18;20.60;55.40
16404;DHT22;8311;50.158;8.642;2023-11-19T18:21:13;20.70;55.60
16404;DHT22;8311;50.158;8.642;2023-11-19T18:24:06;20.80;55.80
16404;DHT22;8311;50.158;8.642;2023-11-19T18:27:01;20.90;56.10
16404;DHT22;8311;50.158;8.642;2023-11-19T18:29:57;21.00;56.10
16404;DHT22;8311;50.158;8.642;2023-11-19T18:32:51;21.10;56.10
16404;DHT22;8311;50.158;8.642;2023-11-19T18:35:44;21.20;56.10
16404;DHT22;8311;50.158;8.642;2023-11-19T18:38:39;21.40;56.10
16404;DHT22;8311;50.158;8.642;2023-11-19T18:41:34;21.40;56.10
16404;DHT22;8311;50.158;8.642;2023-11-19T18:44:27;21.60;56.10